sensor_id;sensor_type;location;lat;lon;timestamp;P1;durP1;ratioP1;P2;durP2;ratioP2
66185;SDS011;58178;49.552;27.922;2022-10-17T00:01:34;9.02;;;5.70;;
66185;SDS011;58178;49.552;27.922;2022-10-17T00:04:00;10.52;;;6.35;;
66185;SDS011;58178;49.552;27.922;2022-10-17T00:06:25;7.15;;;5.95;;
66185;SDS011;58178;49.552;27.922;2022-10-17T00:08:51;7.75;;;5.72;;
66185;SDS011;58178;49.552;27.922;2022-10-17T00:11:21;9.38;;;6.03;;
66185;SDS011;58178;49.552;27.922;2022-10-17T00:13:50;9.63;;;5.90;;
66185;SDS011;58178;49.552;27.922;2022-10-17T00:16:24;12.73;;;6.10;;
66185;SDS011;58178;49.552;27.922;2022-10-17T00:18:50;9.15;;;6.05;;
66185;SDS011;58178;49.552;27.922;2022-10-17T00:21:17;10.82;;;6.05;;
66185;SDS011;58178;49.552;27.922;2022-10-17T00:23:43;11.43;;;6.57;;
66185;SDS011;58178;49.552;27.922;2022-10-17T00:26:09;11.07;;;6.13;;
66185;SDS011;58178;49.552;27.922;2022-10-17T00:28:35;7.10;;;6.40;;
66185;SDS011;58178;49.552;27.922;2022-10-17T00:31:02;8.07;;;6.28;;
66185;SDS011;58178;49.552;27.922;2022-10-17T00:33:29;8.95;;;6.70;;
66185;SDS011;58178;49.552;27.922;2022-10-17T00:38:32;10.52;;;7.13;;
66185;SDS011;58178;49.552;27.922;2022-10-17T00:40:58;10.68;;;7.10;;
66185;SDS011;58178;49.552;27.922;2022-10-17T00:43:23;9.68;;;7.20;;
66185;SDS011;58178;49.552;27.922;2022-10-17T00:45:50;12.50;;;6.95;;
66185;SDS011;58178;49.552;27.922;2022-10-17T00:48:16;9.38;;;6.88;;
66185;SDS011;58178;49.552;27.922;2022-10-17T00:50:43;9.07;;;7.20;;
66185;SDS011;58178;49.552;27.922;2022-10-17T00:53:10;10.55;;;7.13;;
66185;SDS011;58178;49.552;27.922;2022-10-17T00:55:38;12.45;;;6.95;;
66185;SDS011;58178;49.552;27.922;2022-10-17T01:00:35;11.07;;;7.00;;
66185;SDS011;58178;49.552;27.922;2022-10-17T01:03:01;9.77;;;7.32;;
66185;SDS011;58178;49.552;27.922;2022-10-17T01:05:27;10.43;;;7.40;;
66185;SDS011;58178;49.552;27.922;2022-10-17T01:07:53;11.90;;;7.13;;
66185;SDS011;58178;49.552;27.922;2022-10-17T01:10:19;14.63;;;7.40;;
66185;SDS011;58178;49.552;27.922;2022-10-17T01:26:54;7.47;;;5.57;;
66185;SDS011;58178;49.552;27.922;2022-10-17T01:32:19;8.43;;;5.95;;
66185;SDS011;58178;49.552;27.922;2022-10-17T01:34:59;6.95;;;5.43;;
66185;SDS011;58178;49.552;27.922;2022-10-17T01:37:33;10.88;;;6.07;;
66185;SDS011;58178;49.552;27.922;2022-10-17T01:40:11;8.95;;;6.15;;
66185;SDS011;58178;49.552;27.922;2022-10-17T01:43:01;11.50;;;5.10;;
66185;SDS011;58178;49.552;27.922;2022-10-17T01:48:34;11.60;;;5.68;;
66185;SDS011;58178;49.552;27.922;2022-10-17T01:51:02;9.70;;;6.00;;
66185;SDS011;58178;49.552;27.922;2022-10-17T01:53:59;9.57;;;5.65;;
66185;SDS011;58178;49.552;27.922;2022-10-17T01:56:27;9.93;;;6.15;;
66185;SDS011;58178;49.552;27.922;2022-10-17T01:58:59;13.50;;;5.70;;
66185;SDS011;58178;49.552;27.922;2022-10-17T02:01:29;8.52;;;5.90;;
66185;SDS011;58178;49.552;27.922;2022-10-17T02:03:55;11.32;;;5.57;;
66185;SDS011;58178;49.552;27.922;2022-10-17T02:06:22;6.97;;;5.45;;
66185;SDS011;58178;49.552;27.922;2022-10-17T02:08:48;9.73;;;5.65;;
66185;SDS011;58178;49.552;27.922;2022-10-17T02:13:51;6.88;;;5.57;;
66185;SDS011;58178;49.552;27.922;2022-10-17T02:24:54;9.32;;;5.88;;
66185;SDS011;58178;49.552;27.922;2022-10-17T02:30:13;6.70;;;4.90;;
66185;SDS011;58178;49.552;27.922;2022-10-17T02:33:04;11.45;;;5.57;;
66185;SDS011;58178;49.552;27.922;2022-10-17T02:35:34;7.10;;;4.85;;
66185;SDS011;58178;49.552;27.922;2022-10-17T02:38:02;11.23;;;5.00;;
66185;SDS011;58178;49.552;27.922;2022-10-17T02:40:29;9.40;;;5.68;;
66185;SDS011;58178;49.552;27.922;2022-10-17T02:42:58;9.95;;;5.00;;
66185;SDS011;58178;49.552;27.922;2022-10-17T02:45:27;7.85;;;4.57;;
66185;SDS011;58178;49.552;27.922;2022-10-17T02:48:01;8.07;;;5.20;;
66185;SDS011;58178;49.552;27.922;2022-10-17T02:50:32;6.82;;;4.53;;
66185;SDS011;58178;49.552;27.922;2022-10-17T02:53:04;10.25;;;4.90;;
66185;SDS011;58178;49.552;27.922;2022-10-17T02:55:38;10.88;;;5.03;;
66185;SDS011;58178;49.552;27.922;2022-10-17T02:58:10;7.10;;;4.97;;
66185;SDS011;58178;49.552;27.922;2022-10-17T03:00:38;8.45;;;4.70;;
66185;SDS011;58178;49.552;27.922;2022-10-17T03:03:18;7.05;;;5.03;;
66185;SDS011;58178;49.552;27.922;2022-10-17T03:05:45;6.95;;;4.25;;
66185;SDS011;58178;49.552;27.922;2022-10-17T03:08:13;10.15;;;5.07;;
66185;SDS011;58178;49.552;27.922;2022-10-17T03:10:39;6.95;;;4.57;;
66185;SDS011;58178;49.552;27.922;2022-10-17T03:13:04;7.97;;;4.53;;
66185;SDS011;58178;49.552;27.922;2022-10-17T03:15:30;7.60;;;4.88;;
66185;SDS011;58178;49.552;27.922;2022-10-17T03:17:56;8.10;;;4.57;;
66185;SDS011;58178;49.552;27.922;2022-10-17T03:20:21;7.35;;;5.00;;
66185;SDS011;58178;49.552;27.922;2022-10-17T03:22:47;5.10;;;3.83;;
66185;SDS011;58178;49.552;27.922;2022-10-17T03:25:12;11.52;;;4.35;;
66185;SDS011;58178;49.552;27.922;2022-10-17T03:27:38;5.18;;;4.35;;
66185;SDS011;58178;49.552;27.922;2022-10-17T03:30:04;5.35;;;4.03;;
66185;SDS011;58178;49.552;27.922;2022-10-17T03:32:33;9.23;;;4.30;;
66185;SDS011;58178;49.552;27.922;2022-10-17T03:34:59;6.50;;;4.35;;
66185;SDS011;58178;49.552;27.922;2022-10-17T03:37:25;6.05;;;3.92;;
66185;SDS011;58178;49.552;27.922;2022-10-17T03:39:50;6.28;;;3.90;;
66185;SDS011;58178;49.552;27.922;2022-10-17T03:42:16;5.75;;;4.25;;
66185;SDS011;58178;49.552;27.922;2022-10-17T03:44:42;5.57;;;3.78;;
66185;SDS011;58178;49.552;27.922;2022-10-17T03:47:07;6.05;;;4.38;;
66185;SDS011;58178;49.552;27.922;2022-10-17T03:49:33;7.47;;;4.07;;
66185;SDS011;58178;49.552;27.922;2022-10-17T03:51:59;4.80;;;4.10;;
66185;SDS011;58178;49.552;27.922;2022-10-17T03:54:24;5.68;;;4.07;;
66185;SDS011;58178;49.552;27.922;2022-10-17T03:56:50;5.78;;;3.80;;
66185;SDS011;58178;49.552;27.922;2022-10-17T03:59:16;6.93;;;3.88;;
66185;SDS011;58178;49.552;27.922;2022-10-17T04:01:42;7.70;;;3.70;;
66185;SDS011;58178;49.552;27.922;2022-10-17T04:04:08;8.65;;;3.60;;
66185;SDS011;58178;49.552;27.922;2022-10-17T04:06:34;8.07;;;4.20;;
66185;SDS011;58178;49.552;27.922;2022-10-17T04:09:03;5.45;;;3.60;;
66185;SDS011;58178;49.552;27.922;2022-10-17T04:11:30;7.50;;;3.78;;
66185;SDS011;58178;49.552;27.922;2022-10-17T04:13:56;5.50;;;3.53;;
66185;SDS011;58178;49.552;27.922;2022-10-17T04:16:23;5.95;;;3.45;;
66185;SDS011;58178;49.552;27.922;2022-10-17T04:18:56;10.77;;;3.60;;
66185;SDS011;58178;49.552;27.922;2022-10-17T04:21:23;5.22;;;3.75;;
66185;SDS011;58178;49.552;27.922;2022-10-17T04:23:57;5.43;;;3.55;;
66185;SDS011;58178;49.552;27.922;2022-10-17T04:26:27;7.55;;;3.47;;
66185;SDS011;58178;49.552;27.922;2022-10-17T04:28:53;5.75;;;3.30;;
66185;SDS011;58178;49.552;27.922;2022-10-17T04:31:18;6.68;;;3.40;;
66185;SDS011;58178;49.552;27.922;2022-10-17T04:33:48;9.07;;;3.20;;
66185;SDS011;58178;49.552;27.922;2022-10-17T04:36:15;5.55;;;3.58;;
66185;SDS011;58178;49.552;27.922;2022-10-17T04:38:42;5.72;;;3.35;;
66185;SDS011;58178;49.552;27.922;2022-10-17T04:41:13;6.63;;;3.20;;
66185;SDS011;58178;49.552;27.922;2022-10-17T04:43:40;9.00;;;3.47;;
66185;SDS011;58178;49.552;27.922;2022-10-17T04:46:10;5.85;;;3.53;;
66185;SDS011;58178;49.552;27.922;2022-10-17T04:48:38;6.00;;;3.55;;
66185;SDS011;58178;49.552;27.922;2022-10-17T04:51:09;4.95;;;3.75;;
66185;SDS011;58178;49.552;27.922;2022-10-17T04:53:37;8.23;;;5.00;;
66185;SDS011;58178;49.552;27.922;2022-10-17T04:56:06;6.25;;;4.57;;
66185;SDS011;58178;49.552;27.922;2022-10-17T04:58:36;7.50;;;5.28;;
66185;SDS011;58178;49.552;27.922;2022-10-17T05:01:11;9.07;;;4.68;;
66185;SDS011;58178;49.552;27.922;2022-10-17T05:03:41;7.72;;;3.88;;
66185;SDS011;58178;49.552;27.922;2022-10-17T05:06:08;8.25;;;4.50;;
66185;SDS011;58178;49.552;27.922;2022-10-17T05:08:36;9.52;;;4.55;;
66185;SDS011;58178;49.552;27.922;2022-10-17T05:11:02;6.68;;;4.30;;
66185;SDS011;58178;49.552;27.922;2022-10-17T05:13:28;6.95;;;4.30;;
66185;SDS011;58178;49.552;27.922;2022-10-17T05:15:57;11.73;;;4.55;;
66185;SDS011;58178;49.552;27.922;2022-10-17T05:18:26;8.45;;;5.07;;
66185;SDS011;58178;49.552;27.922;2022-10-17T05:20:52;9.38;;;5.30;;
66185;SDS011;58178;49.552;27.922;2022-10-17T05:23:18;10.45;;;5.20;;
66185;SDS011;58178;49.552;27.922;2022-10-17T05:25:43;10.07;;;3.53;;
66185;SDS011;58178;49.552;27.922;2022-10-17T05:28:09;5.55;;;3.80;;
66185;SDS011;58178;49.552;27.922;2022-10-17T05:30:35;8.85;;;3.47;;
66185;SDS011;58178;49.552;27.922;2022-10-17T05:33:00;8.15;;;3.75;;
66185;SDS011;58178;49.552;27.922;2022-10-17T05:35:26;8.93;;;3.95;;
66185;SDS011;58178;49.552;27.922;2022-10-17T05:37:55;5.03;;;3.10;;
66185;SDS011;58178;49.552;27.922;2022-10-17T05:40:22;8.63;;;3.58;;
66185;SDS011;58178;49.552;27.922;2022-10-17T05:42:48;12.32;;;3.40;;
66185;SDS011;58178;49.552;27.922;2022-10-17T05:45:14;9.13;;;3.90;;
66185;SDS011;58178;49.552;27.922;2022-10-17T05:47:40;6.57;;;3.20;;
66185;SDS011;58178;49.552;27.922;2022-10-17T05:50:06;7.68;;;3.08;;
66185;SDS011;58178;49.552;27.922;2022-10-17T05:52:32;5.70;;;3.08;;
66185;SDS011;58178;49.552;27.922;2022-10-17T05:54:58;8.00;;;2.80;;
66185;SDS011;58178;49.552;27.922;2022-10-17T05:57:24;4.43;;;2.95;;
66185;SDS011;58178;49.552;27.922;2022-10-17T05:59:50;6.82;;;2.92;;
66185;SDS011;58178;49.552;27.922;2022-10-17T06:02:16;7.75;;;3.40;;
66185;SDS011;58178;49.552;27.922;2022-10-17T06:04:42;6.95;;;3.22;;
66185;SDS011;58178;49.552;27.922;2022-10-17T06:07:10;8.15;;;2.75;;
66185;SDS011;58178;49.552;27.922;2022-10-17T06:09:39;4.88;;;3.00;;
66185;SDS011;58178;49.552;27.922;2022-10-17T06:12:06;5.88;;;3.25;;
66185;SDS011;58178;49.552;27.922;2022-10-17T06:14:32;7.68;;;3.42;;
66185;SDS011;58178;49.552;27.922;2022-10-17T06:16:57;8.35;;;2.88;;
66185;SDS011;58178;49.552;27.922;2022-10-17T06:19:23;7.97;;;3.08;;
66185;SDS011;58178;49.552;27.922;2022-10-17T06:21:49;4.45;;;2.53;;
66185;SDS011;58178;49.552;27.922;2022-10-17T06:24:14;3.90;;;2.80;;
66185;SDS011;58178;49.552;27.922;2022-10-17T06:26:40;4.68;;;3.08;;
66185;SDS011;58178;49.552;27.922;2022-10-17T06:29:10;4.90;;;2.60;;
66185;SDS011;58178;49.552;27.922;2022-10-17T06:31:35;4.65;;;2.97;;
66185;SDS011;58178;49.552;27.922;2022-10-17T06:34:01;10.73;;;2.95;;
66185;SDS011;58178;49.552;27.922;2022-10-17T06:36:27;4.85;;;2.75;;
66185;SDS011;58178;49.552;27.922;2022-10-17T06:38:54;7.70;;;3.05;;
66185;SDS011;58178;49.552;27.922;2022-10-17T06:41:20;8.25;;;3.90;;
66185;SDS011;58178;49.552;27.922;2022-10-17T06:43:46;13.80;;;5.53;;
66185;SDS011;58178;49.552;27.922;2022-10-17T06:46:13;16.60;;;7.15;;
66185;SDS011;58178;49.552;27.922;2022-10-17T06:48:39;12.50;;;7.15;;
66185;SDS011;58178;49.552;27.922;2022-10-17T06:51:05;20.63;;;10.63;;
66185;SDS011;58178;49.552;27.922;2022-10-17T06:53:34;15.23;;;6.10;;
66185;SDS011;58178;49.552;27.922;2022-10-17T06:56:00;6.18;;;3.00;;
66185;SDS011;58178;49.552;27.922;2022-10-17T06:58:28;4.90;;;2.72;;
66185;SDS011;58178;49.552;27.922;2022-10-17T07:01:01;10.70;;;3.28;;
66185;SDS011;58178;49.552;27.922;2022-10-17T07:03:29;5.72;;;2.65;;
66185;SDS011;58178;49.552;27.922;2022-10-17T07:05:55;7.38;;;3.50;;
66185;SDS011;58178;49.552;27.922;2022-10-17T07:08:21;10.18;;;2.95;;
66185;SDS011;58178;49.552;27.922;2022-10-17T07:10:47;7.05;;;2.25;;
66185;SDS011;58178;49.552;27.922;2022-10-17T07:13:13;7.07;;;2.25;;
66185;SDS011;58178;49.552;27.922;2022-10-17T07:15:39;5.95;;;2.30;;
66185;SDS011;58178;49.552;27.922;2022-10-17T07:18:05;5.38;;;2.60;;
66185;SDS011;58178;49.552;27.922;2022-10-17T07:20:30;6.90;;;3.00;;
66185;SDS011;58178;49.552;27.922;2022-10-17T07:22:56;8.90;;;2.42;;
66185;SDS011;58178;49.552;27.922;2022-10-17T07:25:22;9.13;;;2.58;;
66185;SDS011;58178;49.552;27.922;2022-10-17T07:27:48;6.28;;;2.30;;
66185;SDS011;58178;49.552;27.922;2022-10-17T07:30:14;4.28;;;2.17;;
66185;SDS011;58178;49.552;27.922;2022-10-17T07:32:40;5.18;;;2.15;;
66185;SDS011;58178;49.552;27.922;2022-10-17T07:35:07;5.93;;;2.63;;
66185;SDS011;58178;49.552;27.922;2022-10-17T07:37:33;5.07;;;1.88;;
66185;SDS011;58178;49.552;27.922;2022-10-17T07:39:58;5.78;;;1.90;;
66185;SDS011;58178;49.552;27.922;2022-10-17T07:42:24;4.05;;;2.40;;
66185;SDS011;58178;49.552;27.922;2022-10-17T07:44:51;7.60;;;2.80;;
66185;SDS011;58178;49.552;27.922;2022-10-17T07:47:17;5.85;;;2.13;;
66185;SDS011;58178;49.552;27.922;2022-10-17T07:49:48;10.40;;;2.08;;
66185;SDS011;58178;49.552;27.922;2022-10-17T07:52:14;6.38;;;1.83;;
66185;SDS011;58178;49.552;27.922;2022-10-17T07:54:41;5.35;;;2.15;;
66185;SDS011;58178;49.552;27.922;2022-10-17T07:57:07;9.73;;;2.47;;
66185;SDS011;58178;49.552;27.922;2022-10-17T07:59:33;8.55;;;2.30;;
66185;SDS011;58178;49.552;27.922;2022-10-17T08:01:59;10.35;;;2.88;;
66185;SDS011;58178;49.552;27.922;2022-10-17T08:04:25;7.57;;;2.45;;
66185;SDS011;58178;49.552;27.922;2022-10-17T08:06:51;6.38;;;2.08;;
66185;SDS011;58178;49.552;27.922;2022-10-17T08:09:20;4.35;;;2.03;;
66185;SDS011;58178;49.552;27.922;2022-10-17T08:11:46;6.20;;;2.47;;
66185;SDS011;58178;49.552;27.922;2022-10-17T08:14:13;7.93;;;2.80;;
66185;SDS011;58178;49.552;27.922;2022-10-17T08:16:40;11.13;;;2.65;;
66185;SDS011;58178;49.552;27.922;2022-10-17T08:19:06;4.72;;;2.25;;
66185;SDS011;58178;49.552;27.922;2022-10-17T08:21:35;7.80;;;2.28;;
66185;SDS011;58178;49.552;27.922;2022-10-17T08:24:02;6.85;;;2.53;;
66185;SDS011;58178;49.552;27.922;2022-10-17T08:26:28;6.50;;;2.28;;
66185;SDS011;58178;49.552;27.922;2022-10-17T08:28:54;9.15;;;2.63;;
66185;SDS011;58178;49.552;27.922;2022-10-17T08:31:20;10.15;;;2.50;;
66185;SDS011;58178;49.552;27.922;2022-10-17T08:33:47;7.57;;;2.42;;
66185;SDS011;58178;49.552;27.922;2022-10-17T08:36:14;5.22;;;2.45;;
66185;SDS011;58178;49.552;27.922;2022-10-17T08:38:42;8.20;;;2.20;;
66185;SDS011;58178;49.552;27.922;2022-10-17T08:41:18;9.75;;;2.40;;
66185;SDS011;58178;49.552;27.922;2022-10-17T08:46:45;8.98;;;2.45;;
66185;SDS011;58178;49.552;27.922;2022-10-17T08:49:15;5.18;;;2.05;;
66185;SDS011;58178;49.552;27.922;2022-10-17T08:51:50;11.35;;;2.08;;
66185;SDS011;58178;49.552;27.922;2022-10-17T08:54:19;7.10;;;2.22;;
66185;SDS011;58178;49.552;27.922;2022-10-17T08:56:50;11.63;;;3.13;;
66185;SDS011;58178;49.552;27.922;2022-10-17T08:59:27;9.95;;;2.65;;
66185;SDS011;58178;49.552;27.922;2022-10-17T09:02:02;7.47;;;2.05;;
66185;SDS011;58178;49.552;27.922;2022-10-17T09:08:07;6.72;;;2.85;;
66185;SDS011;58178;49.552;27.922;2022-10-17T09:10:49;7.28;;;2.50;;
66185;SDS011;58178;49.552;27.922;2022-10-17T09:13:30;8.13;;;2.20;;
66185;SDS011;58178;49.552;27.922;2022-10-17T09:21:35;7.00;;;2.67;;
66185;SDS011;58178;49.552;27.922;2022-10-17T09:24:10;8.93;;;2.42;;
66185;SDS011;58178;49.552;27.922;2022-10-17T09:26:43;8.20;;;3.00;;
66185;SDS011;58178;49.552;27.922;2022-10-17T09:29:20;7.68;;;2.97;;
66185;SDS011;58178;49.552;27.922;2022-10-17T09:31:56;11.85;;;2.50;;
66185;SDS011;58178;49.552;27.922;2022-10-17T09:34:23;9.82;;;3.13;;
66185;SDS011;58178;49.552;27.922;2022-10-17T09:36:50;3.88;;;2.17;;
66185;SDS011;58178;49.552;27.922;2022-10-17T09:39:17;4.57;;;2.65;;
66185;SDS011;58178;49.552;27.922;2022-10-17T09:41:57;4.78;;;3.30;;
66185;SDS011;58178;49.552;27.922;2022-10-17T09:44:27;7.80;;;2.83;;
66185;SDS011;58178;49.552;27.922;2022-10-17T09:49:33;11.10;;;3.40;;
66185;SDS011;58178;49.552;27.922;2022-10-17T09:52:02;9.95;;;3.33;;
66185;SDS011;58178;49.552;27.922;2022-10-17T09:54:51;11.88;;;3.13;;
66185;SDS011;58178;49.552;27.922;2022-10-17T09:57:17;12.45;;;3.25;;
66185;SDS011;58178;49.552;27.922;2022-10-17T09:59:45;7.53;;;3.50;;
66185;SDS011;58178;49.552;27.922;2022-10-17T10:04:56;11.52;;;3.00;;
66185;SDS011;58178;49.552;27.922;2022-10-17T10:07:23;6.22;;;3.10;;
66185;SDS011;58178;49.552;27.922;2022-10-17T10:09:50;9.38;;;3.08;;
66185;SDS011;58178;49.552;27.922;2022-10-17T10:12:20;9.30;;;3.17;;
66185;SDS011;58178;49.552;27.922;2022-10-17T10:14:48;8.43;;;2.90;;
66185;SDS011;58178;49.552;27.922;2022-10-17T10:23:08;9.30;;;2.90;;
66185;SDS011;58178;49.552;27.922;2022-10-17T10:28:38;6.00;;;2.90;;
66185;SDS011;58178;49.552;27.922;2022-10-17T10:31:06;8.43;;;3.47;;
66185;SDS011;58178;49.552;27.922;2022-10-17T10:33:34;5.88;;;3.13;;
66185;SDS011;58178;49.552;27.922;2022-10-17T10:36:02;12.13;;;3.97;;
66185;SDS011;58178;49.552;27.922;2022-10-17T10:38:30;9.70;;;3.50;;
66185;SDS011;58178;49.552;27.922;2022-10-17T10:41:01;9.20;;;3.13;;
66185;SDS011;58178;49.552;27.922;2022-10-17T10:43:34;7.40;;;3.00;;
66185;SDS011;58178;49.552;27.922;2022-10-17T10:46:01;10.77;;;3.60;;
66185;SDS011;58178;49.552;27.922;2022-10-17T10:49:00;6.80;;;3.13;;
66185;SDS011;58178;49.552;27.922;2022-10-17T10:51:43;8.25;;;2.80;;
66185;SDS011;58178;49.552;27.922;2022-10-17T10:57:01;7.45;;;2.63;;
66185;SDS011;58178;49.552;27.922;2022-10-17T10:59:34;10.95;;;3.00;;
66185;SDS011;58178;49.552;27.922;2022-10-17T11:07:28;10.07;;;2.97;;
66185;SDS011;58178;49.552;27.922;2022-10-17T11:12:38;10.30;;;3.00;;
66185;SDS011;58178;49.552;27.922;2022-10-17T11:15:22;8.18;;;2.40;;
66185;SDS011;58178;49.552;27.922;2022-10-17T11:25:53;5.72;;;3.15;;
66185;SDS011;58178;49.552;27.922;2022-10-17T11:28:22;4.75;;;2.10;;
66185;SDS011;58178;49.552;27.922;2022-10-17T11:36:30;5.75;;;2.28;;
66185;SDS011;58178;49.552;27.922;2022-10-17T11:39:05;5.80;;;2.25;;
66185;SDS011;58178;49.552;27.922;2022-10-17T11:41:42;9.20;;;2.75;;
66185;SDS011;58178;49.552;27.922;2022-10-17T11:44:24;5.15;;;2.00;;
66185;SDS011;58178;49.552;27.922;2022-10-17T11:46:53;9.98;;;2.67;;
66185;SDS011;58178;49.552;27.922;2022-10-17T11:49:27;5.22;;;2.22;;
66185;SDS011;58178;49.552;27.922;2022-10-17T11:51:58;9.70;;;2.17;;
66185;SDS011;58178;49.552;27.922;2022-10-17T11:54:40;6.07;;;2.33;;
66185;SDS011;58178;49.552;27.922;2022-10-17T12:02:59;8.23;;;2.03;;
66185;SDS011;58178;49.552;27.922;2022-10-17T12:11:19;10.50;;;2.50;;
66185;SDS011;58178;49.552;27.922;2022-10-17T12:13:49;9.52;;;2.03;;
66185;SDS011;58178;49.552;27.922;2022-10-17T12:18:46;8.02;;;3.08;;
66185;SDS011;58178;49.552;27.922;2022-10-17T12:21:17;5.05;;;2.22;;
66185;SDS011;58178;49.552;27.922;2022-10-17T12:23:50;8.20;;;2.00;;
66185;SDS011;58178;49.552;27.922;2022-10-17T12:26:24;11.43;;;2.50;;
66185;SDS011;58178;49.552;27.922;2022-10-17T12:28:51;14.95;;;2.45;;
66185;SDS011;58178;49.552;27.922;2022-10-17T12:34:02;10.40;;;2.90;;
66185;SDS011;58178;49.552;27.922;2022-10-17T12:46:48;7.07;;;2.90;;
66185;SDS011;58178;49.552;27.922;2022-10-17T12:49:44;8.30;;;2.60;;
66185;SDS011;58178;49.552;27.922;2022-10-17T12:52:23;9.25;;;2.38;;
66185;SDS011;58178;49.552;27.922;2022-10-17T12:54:51;6.47;;;3.13;;
66185;SDS011;58178;49.552;27.922;2022-10-17T13:02:52;5.90;;;2.40;;
66185;SDS011;58178;49.552;27.922;2022-10-17T13:05:29;6.65;;;3.28;;
66185;SDS011;58178;49.552;27.922;2022-10-17T13:08:00;5.78;;;2.40;;
66185;SDS011;58178;49.552;27.922;2022-10-17T13:10:28;9.80;;;3.30;;
66185;SDS011;58178;49.552;27.922;2022-10-17T13:13:16;8.95;;;3.00;;
66185;SDS011;58178;49.552;27.922;2022-10-17T13:15:45;11.93;;;3.25;;
66185;SDS011;58178;49.552;27.922;2022-10-17T13:18:16;11.00;;;2.85;;
66185;SDS011;58178;49.552;27.922;2022-10-17T13:20:53;11.60;;;3.60;;
66185;SDS011;58178;49.552;27.922;2022-10-17T13:23:23;11.30;;;3.33;;
66185;SDS011;58178;49.552;27.922;2022-10-17T13:26:03;13.02;;;3.38;;
66185;SDS011;58178;49.552;27.922;2022-10-17T13:28:44;12.98;;;3.13;;
66185;SDS011;58178;49.552;27.922;2022-10-17T13:31:30;9.82;;;3.95;;
66185;SDS011;58178;49.552;27.922;2022-10-17T13:34:01;8.70;;;2.97;;
66185;SDS011;58178;49.552;27.922;2022-10-17T13:36:29;12.07;;;3.80;;
66185;SDS011;58178;49.552;27.922;2022-10-17T13:38:59;11.40;;;3.63;;
66185;SDS011;58178;49.552;27.922;2022-10-17T13:41:29;11.32;;;3.85;;
66185;SDS011;58178;49.552;27.922;2022-10-17T13:43:57;11.65;;;3.88;;
66185;SDS011;58178;49.552;27.922;2022-10-17T13:46:25;9.93;;;3.70;;
66185;SDS011;58178;49.552;27.922;2022-10-17T13:48:55;11.32;;;4.13;;
66185;SDS011;58178;49.552;27.922;2022-10-17T13:51:22;11.60;;;4.10;;
66185;SDS011;58178;49.552;27.922;2022-10-17T13:53:49;10.88;;;3.80;;
66185;SDS011;58178;49.552;27.922;2022-10-17T13:56:17;13.57;;;4.50;;
66185;SDS011;58178;49.552;27.922;2022-10-17T13:58:48;11.50;;;5.65;;
66185;SDS011;58178;49.552;27.922;2022-10-17T14:01:16;16.48;;;4.80;;
66185;SDS011;58178;49.552;27.922;2022-10-17T14:03:45;14.85;;;6.28;;
66185;SDS011;58178;49.552;27.922;2022-10-17T14:06:18;9.63;;;4.80;;
66185;SDS011;58178;49.552;27.922;2022-10-17T14:08:50;12.82;;;3.60;;
66185;SDS011;58178;49.552;27.922;2022-10-17T14:11:25;16.10;;;4.97;;
66185;SDS011;58178;49.552;27.922;2022-10-17T14:13:55;12.40;;;4.65;;
66185;SDS011;58178;49.552;27.922;2022-10-17T14:16:22;14.63;;;4.35;;
66185;SDS011;58178;49.552;27.922;2022-10-17T14:18:49;7.60;;;4.47;;
66185;SDS011;58178;49.552;27.922;2022-10-17T14:21:23;14.98;;;4.70;;
66185;SDS011;58178;49.552;27.922;2022-10-17T14:23:50;9.82;;;4.75;;
66185;SDS011;58178;49.552;27.922;2022-10-17T14:26:18;10.00;;;3.90;;
66185;SDS011;58178;49.552;27.922;2022-10-17T14:28:50;9.73;;;4.90;;
66185;SDS011;58178;49.552;27.922;2022-10-17T14:31:29;8.65;;;4.32;;
66185;SDS011;58178;49.552;27.922;2022-10-17T14:33:57;14.63;;;5.03;;
66185;SDS011;58178;49.552;27.922;2022-10-17T14:36:35;14.27;;;4.88;;
66185;SDS011;58178;49.552;27.922;2022-10-17T14:39:06;11.10;;;4.60;;
66185;SDS011;58178;49.552;27.922;2022-10-17T14:41:33;12.20;;;5.28;;
66185;SDS011;58178;49.552;27.922;2022-10-17T14:44:04;12.98;;;4.38;;
66185;SDS011;58178;49.552;27.922;2022-10-17T14:46:33;15.25;;;5.32;;
66185;SDS011;58178;49.552;27.922;2022-10-17T14:49:06;13.07;;;4.80;;
66185;SDS011;58178;49.552;27.922;2022-10-17T14:51:39;8.25;;;4.35;;
66185;SDS011;58178;49.552;27.922;2022-10-17T14:57:24;8.90;;;4.88;;
66185;SDS011;58178;49.552;27.922;2022-10-17T14:59:55;15.07;;;4.78;;
66185;SDS011;58178;49.552;27.922;2022-10-17T15:02:22;10.43;;;4.43;;
66185;SDS011;58178;49.552;27.922;2022-10-17T15:04:49;8.57;;;4.20;;
66185;SDS011;58178;49.552;27.922;2022-10-17T15:07:15;8.63;;;4.53;;
66185;SDS011;58178;49.552;27.922;2022-10-17T15:09:42;8.15;;;4.40;;
66185;SDS011;58178;49.552;27.922;2022-10-17T15:12:13;10.75;;;4.38;;
66185;SDS011;58178;49.552;27.922;2022-10-17T15:14:40;8.27;;;4.18;;
66185;SDS011;58178;49.552;27.922;2022-10-17T15:17:11;8.32;;;4.53;;
66185;SDS011;58178;49.552;27.922;2022-10-17T15:19:38;8.98;;;4.35;;
66185;SDS011;58178;49.552;27.922;2022-10-17T15:22:04;9.55;;;4.22;;
66185;SDS011;58178;49.552;27.922;2022-10-17T15:24:29;8.23;;;4.55;;
66185;SDS011;58178;49.552;27.922;2022-10-17T15:26:55;14.85;;;4.38;;
66185;SDS011;58178;49.552;27.922;2022-10-17T15:29:20;11.85;;;4.57;;
66185;SDS011;58178;49.552;27.922;2022-10-17T15:31:46;8.05;;;3.95;;
66185;SDS011;58178;49.552;27.922;2022-10-17T15:34:12;10.77;;;4.45;;
66185;SDS011;58178;49.552;27.922;2022-10-17T15:36:39;14.20;;;4.68;;
66185;SDS011;58178;49.552;27.922;2022-10-17T15:39:05;11.32;;;4.30;;
66185;SDS011;58178;49.552;27.922;2022-10-17T15:41:32;13.93;;;5.07;;
66185;SDS011;58178;49.552;27.922;2022-10-17T15:43:58;11.93;;;4.65;;
66185;SDS011;58178;49.552;27.922;2022-10-17T15:46:26;13.65;;;4.97;;
66185;SDS011;58178;49.552;27.922;2022-10-17T15:48:54;6.72;;;4.57;;
66185;SDS011;58178;49.552;27.922;2022-10-17T15:51:20;10.52;;;4.90;;
66185;SDS011;58178;49.552;27.922;2022-10-17T15:53:47;8.32;;;4.20;;
66185;SDS011;58178;49.552;27.922;2022-10-17T15:56:18;13.75;;;4.75;;
66185;SDS011;58178;49.552;27.922;2022-10-17T15:58:44;10.07;;;4.30;;
66185;SDS011;58178;49.552;27.922;2022-10-17T16:01:15;7.75;;;3.65;;
66185;SDS011;58178;49.552;27.922;2022-10-17T16:03:51;7.65;;;3.67;;
66185;SDS011;58178;49.552;27.922;2022-10-17T16:06:17;9.30;;;3.92;;
66185;SDS011;58178;49.552;27.922;2022-10-17T16:08:44;6.40;;;2.90;;
66185;SDS011;58178;49.552;27.922;2022-10-17T16:11:28;6.72;;;2.90;;
66185;SDS011;58178;49.552;27.922;2022-10-17T16:13:58;6.30;;;2.88;;
66185;SDS011;58178;49.552;27.922;2022-10-17T16:16:25;6.13;;;3.03;;
66185;SDS011;58178;49.552;27.922;2022-10-17T16:18:52;8.77;;;3.75;;
66185;SDS011;58178;49.552;27.922;2022-10-17T16:21:18;7.93;;;2.83;;
66185;SDS011;58178;49.552;27.922;2022-10-17T16:23:49;9.07;;;3.90;;
66185;SDS011;58178;49.552;27.922;2022-10-17T16:26:15;10.88;;;3.28;;
66185;SDS011;58178;49.552;27.922;2022-10-17T16:28:41;7.88;;;3.35;;
66185;SDS011;58178;49.552;27.922;2022-10-17T16:31:21;8.35;;;3.45;;
66185;SDS011;58178;49.552;27.922;2022-10-17T16:33:48;10.48;;;4.18;;
66185;SDS011;58178;49.552;27.922;2022-10-17T16:36:14;6.60;;;3.65;;
66185;SDS011;58178;49.552;27.922;2022-10-17T16:38:40;7.55;;;3.75;;
66185;SDS011;58178;49.552;27.922;2022-10-17T16:41:15;11.80;;;3.90;;
66185;SDS011;58178;49.552;27.922;2022-10-17T16:43:46;10.60;;;2.70;;
66185;SDS011;58178;49.552;27.922;2022-10-17T16:46:13;8.95;;;3.13;;
66185;SDS011;58178;49.552;27.922;2022-10-17T16:48:38;9.93;;;3.35;;